Flugplatz Nürnberg (EDDN)

Hier findest Du alle Informationen zum Flugplatz Nürnberg (EDDN).

Informationen für Piloten zum Flugplatz Nürnberg

Hier findest Du alle relevanten Informationen, die Du als Pilot benötigst, um Nürnberg anzufliegen.

Flugplatz: Nürnberg ICAO-Code: EDDN
Frequenz Turm: 118,300 Mhz GAFOR Gebiet: 55
Frequenz Ground: 118,100 Mhz Mogas: nein
Platzrunde: N 1900 ft Landegebühr: -
Platzhöhe: - Sunrise: 06:43 Uhr UTC
Pisten: 10/28 - 2.700 m x 45 m, Sunset: 15:23 Uhr UTC

Mitglieder, die in Nürnberg fliegen

Flugwetter am Flugplatz Nürnberg

Die METAR Information stammen aus EDDN.

METAR Code:
2020/11/16 21:50
EDDN 162150Z 20003KT 9999 FEW017 SCT043 08/06 Q1024

Temperatur: -0,6 °C Niederschlag: - Wind: 0,9 kt (max.: 1,7 kt in Böen)
Temperatur (min.): -1,7 °C Luftdruck: 1025 hPa Windrichtung: 148 °
Temperatur (max.): - Luftfeuchtigkeit: 96 % Bewölkung: -

Flugschulen am Flugplatz Nürnberg

Am Flugplatz Nürnberg gibt es leider keine Flugschule.

Benachbarte Flugplätze und Flugschulen

Es gibt 23 weitere Flugplätze in einem Umkreis von 50 km um den Flugplatz Nürnberg.

Jetzt anmelden

Passwort vergessen

Umfrage Archiv

Wie viele Flugstunden seid Ihr in Eurer Pilotenausbildung geflogen?

31 - 40 Stunden
50 %
41 - 50 Stunden
21.2 %
exakt 30 Stunden
15.4 %
über 60 Stunden
7.7 %
51 - 60 Stunden
5.8 %
Stimmen: 52 | Diskussion
Anzeige: Roland Aircraft
Statistik Alle Mitglieder

Aktuell sind 26 Besucher online.

Anzeige: VFR Sprechfunk Simulator


Anzeige: Pocket FMS